Time;durP1;ratioP1;P1;durP2;ratioP2;P2;SDS_P1;SDS_P2;PMS_P1;PMS_P2;Temp;Humidity;BMP_temperature;BMP_pressure;BME280_temperature;BME280_humidity;BME280_pressure;Samples;Min_cycle;Max_cycle;Signal;HPM_P1;HPM_P2
2021/04/15 00:00:07;;;;;;;;;;;;;;;9.52;79.07;100469.42;1717489;83;20243;-58
2021/04/15 00:03:17;;;;;;;;;;;;;;;9.45;79.16;100470.59;1717589;83;20211;-58
2021/04/15 00:06:25;;;;;;;;;;;;;;;9.36;79.32;100474.33;1717577;83;20199;-58
2021/04/15 00:09:31;;;;;;;;;;;;;;;9.29;79.42;100470.56;1717576;83;20247;-57
2021/04/15 00:12:35;;;;;;;;;;;;;;;9.22;79.40;100472.23;1717692;83;20552;-57
2021/04/15 00:15:40;;;;;;;;;;;;;;;9.16;79.57;100467.94;1717478;83;20207;-57
2021/04/15 00:18:48;;;;;;;;;;;;;;;9.10;79.64;100468.11;1717626;83;20255;-58
2021/04/15 00:21:56;;;;;;;;;;;;;;;9.05;79.78;100476.77;1717479;83;20221;-57
2021/04/15 00:25:02;;;;;;;;;;;;;;;9.01;79.94;100475.89;1655946;85;20347;-59
2021/04/15 00:28:06;;;;;;;;;;;;;;;8.97;80.02;100480.81;1691999;85;20213;-59
2021/04/15 00:31:11;;;;;;;;;;;;;;;8.91;79.94;100475.19;1691837;85;20543;-58
2021/04/15 00:34:15;;;;;;;;;;;;;;;8.86;80.08;100478.91;1693657;85;20301;-59
2021/04/15 00:37:22;;;;;;;;;;;;;;;8.84;80.35;100476.84;1693292;85;20206;-58
2021/04/15 00:40:29;;;;;;;;;;;;;;;8.84;80.55;100472.75;1693660;85;20294;-58
2021/04/15 00:43:35;;;;;;;;;;;;;;;8.84;80.71;100476.84;1693830;85;20305;-58
2021/04/15 00:46:47;;;;;;;;;;;;;;;8.82;80.79;100474.77;1693800;85;20205;-59
2021/04/15 00:50:01;;;;;;;;;;;;;;;8.81;80.85;100470.34;1693086;85;20309;-58
2021/04/15 00:53:06;;;;;;;;;;;;;;;8.81;80.97;100464.38;1693832;85;20230;-59
2021/04/15 00:56:13;;;;;;;;;;;;;;;8.82;81.15;100468.81;1693862;85;20580;-58
2021/04/15 00:59:19;;;;;;;;;;;;;;;8.82;81.30;100463.85;1693597;85;20246;-59
2021/04/15 01:02:26;;;;;;;;;;;;;;;8.81;81.31;100467.11;1693296;85;20285;-58
2021/04/15 01:05:36;;;;;;;;;;;;;;;8.81;81.24;100458.06;1693903;85;20684;-59
2021/04/15 01:08:42;;;;;;;;;;;;;;;8.77;81.04;100453.92;1693839;85;20314;-58
2021/04/15 01:12:10;;;;;;;;;;;;;;;8.72;80.84;100454.95;1692588;85;20350;-58
2021/04/15 01:15:35;;;;;;;;;;;;;;;8.69;80.92;100449.29;1692277;85;20325;-58
2021/04/15 01:18:52;;;;;;;;;;;;;;;8.66;80.82;100445.52;1693238;85;20546;-58
2021/04/15 01:22:09;;;;;;;;;;;;;;;8.66;80.75;100451.48;1692421;85;20597;-59
2021/04/15 01:25:28;;;;;;;;;;;;;;;8.68;80.92;100439.91;1711234;82;20276;-59
2021/04/15 01:28:53;;;;;;;;;;;;;;;8.73;81.01;100444.37;1717464;83;20315;-59
2021/04/15 01:32:19;;;;;;;;;;;;;;;8.78;81.07;100443.38;1717581;83;20259;-59
2021/04/15 01:35:38;;;;;;;;;;;;;;;8.84;81.05;100439.98;1717502;83;20223;-59
2021/04/15 01:38:49;;;;;;;;;;;;;;;8.87;81.08;100436.43;1717337;83;20271;-58
2021/04/15 01:42:03;;;;;;;;;;;;;;;8.91;81.03;100435.59;1717370;83;20220;-60
2021/04/15 01:45:09;;;;;;;;;;;;;;;8.92;80.85;100435.44;1677987;85;20542;-58
2021/04/15 01:48:16;;;;;;;;;;;;;;;8.92;80.69;100441.39;1677952;85;20543;-59
2021/04/15 01:51:23;;;;;;;;;;;;;;;8.90;80.50;100450.25;1677953;85;20282;-58
2021/04/15 01:54:32;;;;;;;;;;;;;;;8.84;80.50;100442.22;1677948;85;20210;-58
2021/04/15 01:57:58;;;;;;;;;;;;;;;8.84;80.60;100441.35;1677961;85;20251;-59
2021/04/15 02:01:08;;;;;;;;;;;;;;;8.83;80.63;100440.48;1678136;85;20225;-59
2021/04/15 02:04:15;;;;;;;;;;;;;;;8.82;80.75;100438.79;1677999;85;20282;-58
2021/04/15 02:07:22;;;;;;;;;;;;;;;8.80;80.75;100427.17;1678117;85;20319;-59
2021/04/15 02:10:27;;;;;;;;;;;;;;;8.79;80.92;100427.34;1678039;85;20567;-59
2021/04/15 02:13:32;;;;;;;;;;;;;;;8.81;81.19;100418.48;1678100;85;20301;-57
2021/04/15 02:16:42;;;;;;;;;;;;;;;8.85;81.29;100417.12;1677995;85;20318;-59
2021/04/15 02:19:53;;;;;;;;;;;;;;;8.87;81.42;100424.64;1678096;85;20239;-58
2021/04/15 02:23:09;;;;;;;;;;;;;;;8.91;81.45;100420.59;1678100;85;20211;-57
2021/04/15 02:26:24;;;;;;;;;;;;;;;8.94;81.39;100424.34;1682360;81;20221;-58
2021/04/15 02:29:31;;;;;;;;;;;;;;;8.94;81.30;100426.55;1682754;85;20250;-59
2021/04/15 02:32:37;;;;;;;;;;;;;;;8.92;81.14;100425.02;1682721;85;20230;-59
2021/04/15 02:35:41;;;;;;;;;;;;;;;8.91;81.30;100426.05;1685469;85;20673;-59
2021/04/15 02:38:37;;;;;;;;;;;;;;;8.92;81.31;100423.64;1682812;85;20262;-58
2021/04/15 02:41:41;;;;;;;;;;;;;;;8.89;81.02;100422.61;1682883;85;20211;-59
2021/04/15 02:44:48;;;;;;;;;;;;;;;8.84;80.86;100414.05;1685315;85;20230;-58
2021/04/15 02:48:01;;;;;;;;;;;;;;;8.70;80.64;100411.45;1682911;85;20202;-59
2021/04/15 02:51:10;;;;;;;;;;;;;;;8.65;80.84;100423.36;1682856;85;20231;-59
2021/04/15 02:54:18;;;;;;;;;;;;;;;8.64;80.87;100421.62;1682610;85;20645;-59
2021/04/15 02:57:27;;;;;;;;;;;;;;;8.66;80.79;100429.65;1682766;85;20263;-59
2021/04/15 03:00:36;;;;;;;;;;;;;;;8.65;80.63;100427.95;1682830;85;20227;-60
2021/04/15 03:03:42;;;;;;;;;;;;;;;8.66;80.61;100432.38;1682807;85;20286;-59
2021/04/15 03:06:46;;;;;;;;;;;;;;;8.66;80.58;100432.38;1682810;85;20218;-61
2021/04/15 03:09:52;;;;;;;;;;;;;;;8.68;80.49;100438.54;1685369;85;20329;-59
2021/04/15 03:13:00;;;;;;;;;;;;;;;8.69;80.49;100445.70;1682827;85;20198;-59
2021/04/15 03:16:10;;;;;;;;;;;;;;;8.71;80.53;100442.30;1692472;85;20218;-60
2021/04/15 03:19:32;;;;;;;;;;;;;;;8.73;80.59;100437.05;1692150;85;20355;-59
2021/04/15 03:22:52;;;;;;;;;;;;;;;8.76;80.62;100435.85;1692400;85;20285;-59
2021/04/15 03:25:57;;;;;;;;;;;;;;;8.81;80.61;100444.41;1693120;81;20262;-59
2021/04/15 03:29:06;;;;;;;;;;;;;;;8.85;80.60;100437.59;1692679;85;20270;-60
2021/04/15 03:32:25;;;;;;;;;;;;;;;8.88;80.53;100429.94;1692633;85;20214;-60
2021/04/15 03:35:48;;;;;;;;;;;;;;;8.92;80.45;100435.44;1692689;85;20270;-59
2021/04/15 03:38:58;;;;;;;;;;;;;;;8.94;80.34;100442.09;1692728;85;20270;-59
2021/04/15 03:42:04;;;;;;;;;;;;;;;8.91;80.10;100439.16;1692700;85;20206;-59
2021/04/15 03:45:22;;;;;;;;;;;;;;;8.87;80.17;100432.33;1693893;84;20565;-59
2021/04/15 03:48:33;;;;;;;;;;;;;;;8.90;80.23;100435.23;1692708;85;20278;-58
2021/04/15 03:51:46;;;;;;;;;;;;;;;8.93;80.22;100430.30;1692731;85;20554;-59
2021/04/15 03:54:56;;;;;;;;;;;;;;;9.00;80.18;100437.33;1692663;85;20526;-59
2021/04/15 03:58:01;;;;;;;;;;;;;;;9.06;80.13;100438.91;1692752;85;20278;-60
2021/04/15 04:01:18;;;;;;;;;;;;;;;9.13;80.07;100441.83;1688947;84;20222;-61
2021/04/15 04:04:39;;;;;;;;;;;;;;;9.19;79.81;100444.39;1692631;85;20337;-60
2021/04/15 04:07:47;;;;;;;;;;;;;;;9.17;79.91;100449.16;1692812;85;20233;-60
2021/04/15 04:10:51;;;;;;;;;;;;;;;9.18;79.84;100443.52;1692604;85;20198;-59
2021/04/15 04:14:00;;;;;;;;;;;;;;;9.17;79.83;100444.56;1692618;85;20222;-60
2021/04/15 04:17:14;;;;;;;;;;;;;;;9.20;80.06;100450.22;1692654;85;20530;-60
2021/04/15 04:20:19;;;;;;;;;;;;;;;9.23;80.04;100458.91;1692585;85;20334;-59
2021/04/15 04:23:43;;;;;;;;;;;;;;;9.28;80.05;100456.55;1692731;85;20294;-58
2021/04/15 04:27:00;;;;;;;;;;;;;;;9.28;79.99;100457.05;1693363;82;20222;-59
2021/04/15 04:30:22;;;;;;;;;;;;;;;9.28;79.97;100455.18;1692336;85;20294;-59
2021/04/15 04:33:26;;;;;;;;;;;;;;;9.30;80.07;100460.48;1670899;85;20262;-58
2021/04/15 04:36:32;;;;;;;;;;;;;;;9.33;80.06;100461.00;1692277;85;20285;-60
2021/04/15 04:39:37;;;;;;;;;;;;;;;9.34;80.03;100457.23;1683831;85;20285;-59
2021/04/15 04:42:52;;;;;;;;;;;;;;;9.39;80.08;100452.67;1687025;84;20222;-59
2021/04/15 04:45:57;;;;;;;;;;;;;;;9.45;79.92;100453.37;1720469;83;20260;-59
2021/04/15 04:49:15;;;;;;;;;;;;;;;9.50;79.78;100454.55;1721104;83;20211;-59
2021/04/15 04:52:25;;;;;;;;;;;;;;;9.59;79.73;100445.38;1720775;83;20291;-60
2021/04/15 04:55:41;;;;;;;;;;;;;;;9.71;79.69;100452.22;1688532;85;20638;-60
2021/04/15 04:58:44;;;;;;;;;;;;;;;9.85;79.59;100444.71;1695405;83;20188;-59
2021/04/15 05:01:50;;;;;;;;;;;;;;;9.98;79.44;100447.80;1715253;84;20623;-59
2021/04/15 05:04:55;;;;;;;;;;;;;;;10.10;79.22;100446.98;1715134;84;20248;-60
2021/04/15 05:08:07;;;;;;;;;;;;;;;10.19;78.84;100452.79;1691386;85;20211;-59
2021/04/15 05:11:12;;;;;;;;;;;;;;;10.18;78.31;100454.66;1691457;84;20274;-60
2021/04/15 05:14:17;;;;;;;;;;;;;;;10.18;78.17;100451.09;1691927;85;20286;-59
2021/04/15 05:17:41;;;;;;;;;;;;;;;10.18;77.93;100453.83;1691719;85;20290;-57
2021/04/15 05:20:46;;;;;;;;;;;;;;;10.20;77.70;100460.83;1692240;84;20215;-56
2021/04/15 05:24:00;;;;;;;;;;;;;;;10.19;77.52;100464.59;1692032;85;20272;-58
2021/04/15 05:27:05;;;;;;;;;;;;;;;10.19;77.65;100465.97;1668811;83;20219;-57
2021/04/15 05:30:21;;;;;;;;;;;;;;;10.24;77.79;100465.45;1749661;80;20202;-57
2021/04/15 05:33:37;;;;;;;;;;;;;;;10.31;77.90;100458.23;1751567;82;20201;-56
2021/04/15 05:36:39;;;;;;;;;;;;;;;10.40;77.85;100449.85;1751262;82;20558;-57
2021/04/15 05:39:43;;;;;;;;;;;;;;;10.44;77.75;100444.39;1751524;82;20232;-57
2021/04/15 05:42:51;;;;;;;;;;;;;;;10.53;77.84;100443.34;1751807;82;20796;-57
2021/04/15 05:45:55;;;;;;;;;;;;;;;10.64;77.61;100433.89;1740713;82;20248;-57
2021/04/15 05:49:07;;;;;;;;;;;;;;;10.75;77.45;100430.78;1744517;82;20589;-57
2021/04/15 05:52:15;;;;;;;;;;;;;;;10.87;77.32;100436.73;1748837;82;20210;-57
2021/04/15 05:55:25;;;;;;;;;;;;;;;10.97;76.99;100438.77;1752033;82;20206;-57
2021/04/15 05:58:37;;;;;;;;;;;;;;;11.03;76.50;100446.27;1751861;82;20202;-57
2021/04/15 06:01:51;;;;;;;;;;;;;;;11.08;76.16;100440.61;1751950;82;20636;-57
2021/04/15 06:05:05;;;;;;;;;;;;;;;11.07;75.72;100442.16;1752410;82;20221;-57
2021/04/15 06:08:11;;;;;;;;;;;;;;;11.08;75.92;100446.09;1749168;82;20192;-57
2021/04/15 06:11:50;;;;;;;;;;;;;;;11.20;75.82;100452.02;1722166;83;20247;-57
2021/04/15 06:14:59;;;;;;;;;;;;;;;11.29;75.49;100453.16;1722689;83;20207;-58
2021/04/15 06:18:15;;;;;;;;;;;;;;;11.38;75.02;100448.52;1721852;83;20611;-57
2021/04/15 06:21:33;;;;;;;;;;;;;;;11.46;74.79;100456.69;1722606;83;20332;-57
2021/04/15 06:24:37;;;;;;;;;;;;;;;11.55;74.81;100446.00;1722637;83;20231;-58
2021/04/15 06:27:43;;;;;;;;;;;;;;;11.68;74.62;100447.67;1700951;83;20235;-57
2021/04/15 06:30:49;;;;;;;;;;;;;;;11.75;74.19;100450.87;1701082;82;20215;-58
2021/04/15 06:33:55;;;;;;;;;;;;;;;11.75;73.66;100450.02;1699975;83;20204;-60
2021/04/15 06:37:27;;;;;;;;;;;;;;;11.69;73.54;100449.38;1690587;84;20210;-60
2021/04/15 06:40:43;;;;;;;;;;;;;;;11.65;73.41;100446.67;1726787;83;20456;-59
2021/04/15 06:44:24;;;;;;;;;;;;;;;11.56;73.28;100447.19;1726282;83;20768;-58
2021/04/15 06:47:36;;;;;;;;;;;;;;;11.50;73.20;100455.28;1727381;83;20302;-60
2021/04/15 06:50:49;;;;;;;;;;;;;;;11.44;73.31;100457.37;1738548;82;20210;-60
2021/04/15 06:54:06;;;;;;;;;;;;;;;11.42;73.45;100453.45;1741133;82;20201;-58
2021/04/15 06:57:28;;;;;;;;;;;;;;;11.47;73.44;100453.77;1742851;82;20245;-59
2021/04/15 07:00:58;;;;;;;;;;;;;;;11.50;73.37;100457.52;1736332;82;20273;-59
2021/04/15 07:04:23;;;;;;;;;;;;;;;11.56;73.38;100449.11;1754114;81;20300;-58
2021/04/15 07:07:32;;;;;;;;;;;;;;;11.58;73.43;100451.13;1757047;82;20241;-58
2021/04/15 07:11:01;;;;;;;;;;;;;;;11.53;73.66;100448.06;1757292;81;20198;-58
2021/04/15 07:14:20;;;;;;;;;;;;;;;11.51;73.71;100447.41;1721324;83;20287;-59
2021/04/15 07:17:46;;;;;;;;;;;;;;;11.48;73.78;100442.30;1721673;83;20352;-59
2021/04/15 07:21:07;;;;;;;;;;;;;;;11.51;73.86;100438.66;1721423;83;20287;-59
2021/04/15 07:24:38;;;;;;;;;;;;;;;11.58;73.86;100440.16;1721128;83;20221;-59
2021/04/15 07:27:54;;;;;;;;;;;;;;;11.65;74.13;100437.91;1721413;83;20211;-60
2021/04/15 07:31:18;;;;;;;;;;;;;;;11.74;74.00;100440.09;1719089;82;20250;-59
2021/04/15 07:34:40;;;;;;;;;;;;;;;11.75;73.59;100432.19;1745270;82;20213;-58
2021/04/15 07:38:23;;;;;;;;;;;;;;;11.79;73.48;100441.27;1745380;81;20210;-55
2021/04/15 07:41:30;;;;;;;;;;;;;;;11.81;73.31;100435.59;1744668;82;20308;-58
2021/04/15 07:44:44;;;;;;;;;;;;;;;11.95;73.54;100434.80;1745030;82;20217;-58
2021/04/15 07:48:02;;;;;;;;;;;;;;;12.07;73.35;100431.95;1745130;82;20293;-57
2021/04/15 07:51:27;;;;;;;;;;;;;;;12.34;73.34;100435.48;1744854;82;20206;-56
2021/04/15 07:54:56;;;;;;;;;;;;;;;12.69;72.56;100438.91;1728780;82;20226;-59
2021/04/15 07:58:39;;;;;;;;;;;;;;;13.03;71.80;100432.34;1692852;84;20254;-59
2021/04/15 08:02:05;;;;;;;;;;;;;;;13.37;70.53;100433.12;1692957;85;20298;-58
2021/04/15 08:05:31;;;;;;;;;;;;;;;13.52;68.96;100430.66;1693234;85;20290;-59
2021/04/15 08:09:00;;;;;;;;;;;;;;;13.47;68.37;100426.28;1747138;82;20197;-58
2021/04/15 08:12:23;;;;;;;;;;;;;;;13.47;68.47;100424.05;1750286;81;20684;-57
2021/04/15 08:15:49;;;;;;;;;;;;;;;13.63;68.51;100417.45;1750490;81;20214;-57
2021/04/15 08:19:16;;;;;;;;;;;;;;;13.78;67.78;100414.14;1732210;82;20599;-57
2021/04/15 08:22:41;;;;;;;;;;;;;;;13.90;67.85;100420.81;1723409;82;20202;-57
2021/04/15 08:25:50;;;;;;;;;;;;;;;13.97;67.19;100407.44;1731373;82;20662;-57
2021/04/15 08:29:14;;;;;;;;;;;;;;;13.98;66.65;100410.55;1721974;83;20212;-57
2021/04/15 08:32:41;;;;;;;;;;;;;;;14.00;66.10;100410.34;1732731;81;20534;-56
2021/04/15 08:36:09;;;;;;;;;;;;;;;13.89;65.72;100408.12;1750817;80;20637;-57
2021/04/15 08:39:53;;;;;;;;;;;;;;;13.85;65.62;100410.92;1745980;82;20215;-56
2021/04/15 08:43:38;;;;;;;;;;;;;;;13.87;65.68;100412.95;1754228;82;20265;-58
2021/04/15 08:46:49;;;;;;;;;;;;;;;13.90;65.35;100407.05;1754331;82;20249;-58
2021/04/15 08:50:07;;;;;;;;;;;;;;;13.75;65.33;100406.28;1736155;82;20223;-57
2021/04/15 08:53:37;;;;;;;;;;;;;;;13.64;65.68;100400.75;1751426;82;20308;-58
2021/04/15 08:57:01;;;;;;;;;;;;;;;13.57;66.34;100404.48;1754297;82;20216;-58
2021/04/15 09:00:15;;;;;;;;;;;;;;;13.61;66.58;100402.52;1753999;82;20285;-61
2021/04/15 09:03:41;;;;;;;;;;;;;;;13.43;66.62;100398.83;1753336;82;20240;-61
2021/04/15 09:07:19;;;;;;;;;;;;;;;13.24;66.99;100402.19;1752450;82;20203;-61
2021/04/15 09:10:29;;;;;;;;;;;;;;;13.06;67.61;100407.26;1752110;82;20281;-61
2021/04/15 09:14:00;;;;;;;;;;;;;;;12.90;68.38;100407.42;1752718;82;20316;-61
2021/04/15 09:17:12;;;;;;;;;;;;;;;12.74;68.81;100412.23;1752212;82;20256;-61
2021/04/15 09:20:32;;;;;;;;;;;;;;;12.61;69.42;100404.66;1751385;81;20281;-61
2021/04/15 09:23:58;;;;;;;;;;;;;;;12.73;70.14;100411.38;1740716;82;20226;-60
2021/04/15 09:27:25;;;;;;;;;;;;;;;12.83;70.15;100410.58;1737550;82;20269;-61
2021/04/15 09:30:52;;;;;;;;;;;;;;;12.94;70.12;100409.24;1752246;81;20197;-60
2021/04/15 09:34:02;;;;;;;;;;;;;;;12.91;70.03;100411.00;1742099;81;20321;-62
2021/04/15 09:37:15;;;;;;;;;;;;;;;12.82;69.90;100399.78;1740626;82;20217;-60
2021/04/15 09:40:32;;;;;;;;;;;;;;;12.76;70.47;100406.91;1740279;82;20278;-59
2021/04/15 09:43:53;;;;;;;;;;;;;;;12.79;70.35;100407.90;1740454;82;20221;-61
2021/04/15 09:47:03;;;;;;;;;;;;;;;12.65;70.29;100401.88;1741475;82;20274;-61
2021/04/15 09:50:19;;;;;;;;;;;;;;;12.47;70.71;100408.25;1741691;82;20269;-60
2021/04/15 09:53:38;;;;;;;;;;;;;;;12.33;70.89;100402.22;1741322;82;20213;-59
2021/04/15 09:56:59;;;;;;;;;;;;;;;12.21;71.47;100396.83;1737212;82;20285;-60
2021/04/15 10:00:15;;;;;;;;;;;;;;;12.28;72.02;100396.94;1741047;82;20612;-60
2021/04/15 10:03:51;;;;;;;;;;;;;;;12.42;72.09;100399.71;1748719;82;20703;-58
2021/04/15 10:06:59;;;;;;;;;;;;;;;12.60;71.80;100391.98;1725580;82;20223;-59
2021/04/15 10:10:40;;;;;;;;;;;;;;;12.78;71.78;100395.19;1724633;82;20277;-61
2021/04/15 10:13:52;;;;;;;;;;;;;;;13.07;71.60;100402.08;1745631;82;20221;-59
2021/04/15 10:16:59;;;;;;;;;;;;;;;13.28;69.80;100398.54;1747887;82;20418;-59
2021/04/15 10:20:26;;;;;;;;;;;;;;;13.26;69.82;100395.98;1747812;82;20217;-61
2021/04/15 10:23:59;;;;;;;;;;;;;;;13.16;69.46;100401.47;1748586;82;20241;-59
2021/04/15 10:27:15;;;;;;;;;;;;;;;13.01;69.48;100401.48;1748917;82;20609;-59
2021/04/15 10:30:43;;;;;;;;;;;;;;;12.91;69.79;100397.27;1748608;82;20246;-59
2021/04/15 10:34:09;;;;;;;;;;;;;;;12.91;70.11;100400.88;1743648;80;20202;-59
2021/04/15 10:37:52;;;;;;;;;;;;;;;13.00;70.28;100398.38;1724335;82;20215;-62
2021/04/15 10:41:00;;;;;;;;;;;;;;;13.14;69.96;100399.42;1715166;81;20224;-61
2021/04/15 10:44:24;;;;;;;;;;;;;;;13.18;69.05;100402.09;1735224;82;20301;-61
2021/04/15 10:47:45;;;;;;;;;;;;;;;13.16;69.33;100391.30;1734551;83;20277;-60
2021/04/15 10:50:59;;;;;;;;;;;;;;;13.15;69.18;100398.36;1721134;82;20281;-61
2021/04/15 10:54:09;;;;;;;;;;;;;;;13.14;69.28;100398.05;1705526;83;20256;-60
2021/04/15 10:57:28;;;;;;;;;;;;;;;13.07;69.12;100393.83;1703657;84;20592;-59
2021/04/15 11:00:40;;;;;;;;;;;;;;;12.96;69.20;100388.79;1705824;84;20213;-62
2021/04/15 11:03:45;;;;;;;;;;;;;;;12.85;69.18;100389.27;1705864;83;20204;-60
2021/04/15 11:06:54;;;;;;;;;;;;;;;12.75;69.07;100391.45;1718971;83;20210;-60
2021/04/15 11:10:06;;;;;;;;;;;;;;;12.63;69.06;100392.11;1734961;82;20648;-60
2021/04/15 11:13:21;;;;;;;;;;;;;;;12.49;69.69;100389.70;1734133;83;20237;-61
2021/04/15 11:16:28;;;;;;;;;;;;;;;12.42;70.37;100391.48;1663341;84;20460;-61
2021/04/15 11:19:34;;;;;;;;;;;;;;;12.41;70.89;100387.55;1685108;85;20302;-60
2021/04/15 11:22:42;;;;;;;;;;;;;;;12.44;71.10;100383.91;1683909;85;20258;-61
2021/04/15 11:25:52;;;;;;;;;;;;;;;12.51;71.53;100388.97;1685077;85;20178;-59
2021/04/15 11:29:00;;;;;;;;;;;;;;;12.60;71.85;100383.73;1679529;85;20210;-60
2021/04/15 11:32:07;;;;;;;;;;;;;;;12.69;71.65;100384.48;1680860;85;20257;-60
2021/04/15 11:35:23;;;;;;;;;;;;;;;12.66;71.22;100383.48;1703611;83;20232;-59
2021/04/15 11:38:35;;;;;;;;;;;;;;;12.55;71.09;100379.33;1716779;83;20219;-61
2021/04/15 11:42:08;;;;;;;;;;;;;;;12.47;71.49;100379.42;1715783;83;20275;-62
2021/04/15 11:45:14;;;;;;;;;;;;;;;12.42;71.46;100377.75;1719512;83;20339;-62
2021/04/15 11:48:30;;;;;;;;;;;;;;;12.37;71.78;100373.34;1720823;83;20310;-60
2021/04/15 11:51:46;;;;;;;;;;;;;;;12.36;71.95;100371.64;1716828;83;20283;-62
2021/04/15 11:55:02;;;;;;;;;;;;;;;12.41;71.96;100370.56;1721416;83;20618;-62
2021/04/15 12:01:13;;;;;;;25.92;17.57;;;;;;;12.61;71.80;100359.85;1887648;73;27955;-62
2021/04/15 12:04:29;;;;;;;29.05;17.23;;;;;;;12.64;71.70;100367.71;1807427;77;21276;-61
2021/04/15 12:07:37;;;;;;;26.02;16.67;;;;;;;12.74;71.88;100367.78;1862835;76;21254;-60
2021/04/15 12:10:46;;;;;;;27.75;17.23;;;;;;;12.77;71.49;100361.04;1860373;76;21212;-61
2021/04/15 12:13:56;;;;;;;28.42;17.37;;;;;;;12.73;71.53;100361.10;1857231;75;21185;-62
2021/04/15 12:17:09;;;;;;;26.10;16.10;;;;;;;12.71;71.67;100358.55;1864996;75;21347;-61
2021/04/15 12:20:41;;;;;;;23.12;14.45;;;;;;;12.70;71.74;100353.25;1862932;76;21358;-60
2021/04/15 12:24:06;;;;;;;26.30;15.05;;;;;;;12.69;72.27;100352.89;1842170;75;21257;-61
2021/04/15 12:27:19;;;;;;;26.93;15.03;;;;;;;12.70;72.39;100354.08;1851168;76;21400;-61
2021/04/15 12:30:37;;;;;;;25.48;15.45;;;;;;;12.68;72.76;100350.69;1853110;76;21189;-61
2021/04/15 12:33:50;;;;;;;25.77;15.75;;;;;;;12.66;72.82;100349.16;1854581;76;21196;-60
2021/04/15 12:37:16;;;;;;;26.48;15.98;;;;;;;12.58;73.15;100347.37;1839531;75;21311;-60
2021/04/15 12:40:45;;;;;;;25.48;15.65;;;;;;;12.60;73.58;100345.80;1847563;76;21193;-62
2021/04/15 12:43:56;;;;;;;24.45;16.95;;;;;;;12.58;73.55;100340.50;1799981;77;21617;-61
2021/04/15 12:47:03;;;;;;;24.47;15.75;;;;;;;12.55;73.64;100343.62;1832544;76;21196;-62
2021/04/15 12:50:09;;;;;;;24.67;16.15;;;;;;;12.46;73.74;100342.03;1819601;77;21848;-61
2021/04/15 12:53:16;;;;;;;24.10;16.50;;;;;;;12.41;73.97;100345.86;1808404;77;21367;-60
2021/04/15 12:56:34;;;;;;;25.68;17.30;;;;;;;12.38;74.28;100346.23;1798138;77;21310;-61
2021/04/15 12:59:50;;;;;;;26.82;17.87;;;;;;;12.32;74.62;100345.59;1828827;77;21263;-61
2021/04/15 13:02:57;;;;;;;26.95;18.60;;;;;;;12.28;75.08;100345.65;1830274;77;21417;-60
2021/04/15 13:06:11;;;;;;;24.77;17.82;;;;;;;12.34;75.55;100353.13;1814822;76;21209;-62
2021/04/15 13:09:17;;;;;;;26.87;19.17;;;;;;;12.37;75.93;100346.42;1806039;76;21273;-62
2021/04/15 13:12:32;;;;;;;24.43;17.52;;;;;;;12.38;76.09;100342.63;1819481;77;21248;-61
2021/04/15 13:15:45;;;;;;;21.15;16.17;;;;;;;12.39;76.49;100349.81;1794326;78;21201;-61
2021/04/15 13:18:54;;;;;;;22.73;16.65;;;;;;;12.39;76.52;100345.19;1751869;77;21278;-61
2021/04/15 13:22:28;;;;;;;26.37;16.50;;;;;;;12.40;76.60;100349.63;1837418;76;21212;-60
2021/04/15 13:25:33;;;;;;;21.23;15.25;;;;;;;12.41;76.71;100338.99;1848216;76;21279;-61
2021/04/15 13:28:58;;;;;;;22.65;15.53;;;;;;;12.39;76.71;100338.32;1798953;76;21258;-60
2021/04/15 13:32:09;;;;;;;19.35;15.55;;;;;;;12.40;76.87;100341.93;1807682;77;21275;-60
2021/04/15 13:35:28;;;;;;;22.65;16.02;;;;;;;12.40;76.92;100340.02;1844222;76;21972;-61
2021/04/15 13:38:48;;;;;;;;;;;;;;;12.41;77.00;100345.86;1838099;75;21343;-61
2021/04/15 13:41:55;;;;;;;23.20;16.10;;;;;;;12.41;76.94;100343.11;1856124;76;20180;-61
2021/04/15 13:45:06;;;;;;;24.35;17.55;;;;;;;12.38;76.93;100342.63;1839451;76;22032;-61
2021/04/15 13:48:12;;;;;;;23.67;17.05;;;;;;;12.33;76.90;100345.08;1814546;77;21215;-61
2021/04/15 13:51:40;;;;;;;25.00;17.45;;;;;;;12.31;77.09;100348.52;1824336;77;21357;-62
2021/04/15 13:54:52;;;;;;;21.07;15.32;;;;;;;12.29;77.27;100345.97;1824913;76;21367;-61
2021/04/15 13:57:59;;;;;;;20.75;14.75;;;;;;;12.28;77.56;100343.41;1826341;77;21431;-60
2021/04/15 14:01:04;;;;;;;19.90;14.53;;;;;;;12.26;77.63;100345.52;1830307;76;21408;-60
2021/04/15 14:04:10;;;;;;;23.98;15.98;;;;;;;12.27;77.81;100345.84;1833361;76;21435;-60
2021/04/15 14:07:45;;;;;;;21.62;15.13;;;;;;;12.27;77.84;100341.21;1823120;77;21474;-61
2021/04/15 14:10:52;;;;;;;17.95;12.80;;;;;;;12.30;77.81;100338.09;1828577;77;21295;-62
2021/04/15 14:14:01;;;;;;;16.70;12.37;;;;;;;12.35;77.80;100338.37;1821969;77;21307;-62
2021/04/15 14:17:09;;;;;;;19.10;13.50;;;;;;;12.34;77.52;100336.66;1828585;76;21303;-60
2021/04/15 14:20:26;;;;;;;15.93;10.88;;;;;;;12.33;77.45;100328.61;1820452;76;21235;-59
2021/04/15 14:23:52;;;;;;;16.40;12.23;;;;;;;12.32;77.15;100330.49;1831819;76;21315;-59
2021/04/15 14:26:58;;;;;;;16.25;11.85;;;;;;;12.33;77.08;100330.84;1771446;78;21226;-60
2021/04/15 14:30:06;;;;;;;17.62;12.40;;;;;;;12.34;77.03;100328.93;1826366;76;21223;-59
2021/04/15 14:33:27;;;;;;;18.07;12.05;;;;;;;12.34;77.10;100335.28;1813013;77;21601;-59
2021/04/15 14:36:39;;;;;;;16.70;11.65;;;;;;;12.36;77.01;100324.98;1809006;77;21337;-60
2021/04/15 14:39:52;;;;;;;16.85;11.93;;;;;;;12.40;77.05;100327.66;1816594;77;21732;-58
2021/04/15 14:42:58;;;;;;;14.20;10.80;;;;;;;12.40;76.89;100319.42;1827573;77;21334;-59
2021/04/15 14:46:07;;;;;;;14.40;10.78;;;;;;;12.42;76.85;100322.84;1822068;77;21420;-59
2021/04/15 14:49:27;;;;;;;17.05;11.93;;;;;;;12.44;76.60;100321.28;1758691;78;21447;-60
2021/04/15 14:52:38;;;;;;;15.70;11.40;;;;;;;12.45;76.73;100323.83;1834245;77;21341;-60
2021/04/15 14:55:44;;;;;;;20.23;14.65;;;;;;;12.46;76.91;100309.09;1810868;76;21325;-59
2021/04/15 14:58:49;;;;;;;18.15;12.73;;;;;;;12.49;77.15;100318.31;1830290;77;21350;-59
2021/04/15 15:01:55;;;;;;;17.10;12.93;;;;;;;12.50;77.28;100313.14;1838174;76;21942;-60
2021/04/15 15:05:13;;;;;;;16.07;12.43;;;;;;;12.49;77.40;100311.95;1842046;76;21208;-60
2021/04/15 15:08:22;;;;;;;15.68;12.07;;;;;;;12.48;77.62;100313.02;1813525;77;21958;-59
2021/04/15 15:11:29;;;;;;;16.40;12.37;;;;;;;12.49;77.77;100314.19;1854560;76;21161;-60
2021/04/15 15:14:39;;;;;;;14.65;12.03;;;;;;;12.51;77.79;100313.45;1862667;75;21376;-59
2021/04/15 15:17:47;;;;;;;13.62;11.50;;;;;;;12.56;77.98;100316.48;1803382;76;21378;-59
2021/04/15 15:21:01;;;;;;;16.23;11.43;;;;;;;12.62;78.00;100318.47;1833225;77;21237;-59
2021/04/15 15:24:18;;;;;;;16.10;11.18;;;;;;;12.68;78.00;100311.37;1790162;77;21721;-60
2021/04/15 15:27:37;;;;;;;14.35;10.60;;;;;;;12.74;77.96;100314.22;1790023;77;21574;-60
2021/04/15 15:30:49;;;;;;;13.25;10.88;;;;;;;12.78;77.65;100308.66;1785919;78;21344;-60
2021/04/15 15:33:54;;;;;;;16.48;11.57;;;;;;;12.79;77.33;100307.63;1827822;76;21216;-59
2021/04/15 15:37:02;;;;;;;17.00;12.37;;;;;;;12.77;77.03;100301.98;1796136;76;21411;-60
2021/04/15 15:40:35;;;;;;;16.30;10.90;;;;;;;12.73;76.79;100300.12;1838731;76;21330;-59
2021/04/15 15:43:44;;;;;;;16.12;10.95;;;;;;;12.66;76.61;100297.84;1794225;76;21453;-60
2021/04/15 15:46:57;;;;;;;15.23;9.95;;;;;;;12.50;76.51;100295.30;1798830;77;21224;-58
2021/04/15 15:50:18;;;;;;;15.00;10.00;;;;;;;12.39;76.76;100291.66;1779060;77;21354;-59
2021/04/15 15:53:37;;;;;;;13.70;9.80;;;;;;;12.22;76.60;100291.52;1806795;77;22115;-59
2021/04/15 15:56:47;;;;;;;14.40;9.63;;;;;;;12.07;76.95;100286.52;1760241;79;21694;-60
2021/04/15 16:00:04;;;;;;;14.55;10.40;;;;;;;11.97;77.23;100281.84;1820449;77;21343;-60
2021/04/15 16:03:24;;;;;;;11.53;9.38;;;;;;;11.91;77.55;100285.31;1796093;78;21445;-60
2021/04/15 16:06:30;;;;;;;14.45;9.63;;;;;;;11.87;77.86;100284.00;1796844;78;21215;-60
2021/04/15 16:09:38;;;;;;;15.13;10.50;;;;;;;11.84;77.95;100283.00;1823018;77;21213;-59
2021/04/15 16:12:50;;;;;;;13.88;9.53;;;;;;;11.77;77.86;100275.17;1829203;77;21338;-58